Time;durP1;ratioP1;P1;durP2;ratioP2;P2;SDS_P1;SDS_P2;PMS_P1;PMS_P2;Temp;Humidity;BMP_temperature;BMP_pressure;BME280_temperature;BME280_humidity;BME280_pressure;Samples;Min_cycle;Max_cycle;Signal;HPM_P1;HPM_P2
2022/03/27 00:00:32;;;;;;;11.48;5.72;;;5.10;23.90;;;;;;5106162;27;34126;-76
2022/03/27 00:02:58;;;;;;;8.00;4.97;;;5.10;23.90;;;;;;5089709;27;34086;-76
2022/03/27 00:05:24;;;;;;;8.18;5.60;;;5.10;24.10;;;;;;5106584;27;35583;-76
2022/03/27 00:07:49;;;;;;;8.48;5.68;;;5.00;24.10;;;;;;5105868;27;34232;-78
2022/03/27 00:10:15;;;;;;;7.43;4.93;;;5.00;24.20;;;;;;5106817;27;34324;-76
2022/03/27 00:12:41;;;;;;;9.77;4.90;;;4.90;24.00;;;;;;5107202;27;34457;-76
2022/03/27 00:15:09;;;;;;;9.93;5.70;;;4.90;24.00;;;;;;5089289;27;35605;-76
2022/03/27 00:17:36;;;;;;;8.63;5.32;;;4.90;24.20;;;;;;5089000;27;34420;-76
2022/03/27 00:20:05;;;;;;;9.27;5.65;;;4.90;24.20;;;;;;5124794;27;34249;-76
2022/03/27 00:22:31;;;;;;;13.00;5.72;;;4.90;24.70;;;;;;5088786;27;34179;-76
2022/03/27 00:24:57;;;;;;;9.23;5.38;;;4.80;24.40;;;;;;5105952;27;36096;-76
2022/03/27 00:27:24;;;;;;;9.55;5.57;;;4.80;24.40;;;;;;5106122;27;34094;-76
2022/03/27 00:29:50;;;;;;;8.50;5.20;;;4.80;25.20;;;;;;5105875;27;34145;-76
2022/03/27 00:32:16;;;;;;;12.90;5.30;;;4.80;24.80;;;;;;5105593;27;34277;-76
2022/03/27 00:34:42;;;;;;;11.02;5.60;;;4.70;24.90;;;;;;5105892;27;35825;-76
2022/03/27 00:37:08;;;;;;;10.43;5.53;;;4.70;25.00;;;;;;5106119;27;34214;-76
2022/03/27 00:39:34;;;;;;;8.15;5.57;;;4.60;25.20;;;;;;5105952;27;34459;-76
2022/03/27 00:42:00;;;;;;;9.90;5.53;;;4.60;25.50;;;;;;5105406;27;34534;-75
2022/03/27 00:44:27;;;;;;;8.50;4.88;;;4.60;25.30;;;;;;5089271;27;36520;-76
2022/03/27 00:46:53;;;;;;;8.15;5.35;;;4.60;25.30;;;;;;5105502;27;34159;-76
2022/03/27 00:49:20;;;;;;;12.82;6.00;;;4.50;25.50;;;;;;5105665;27;34284;-76
2022/03/27 00:51:46;;;;;;;8.73;5.40;;;4.50;25.50;;;;;;5123405;27;34374;-76
2022/03/27 00:54:12;;;;;;;8.55;4.97;;;4.50;26.10;;;;;;5088990;27;35906;-75
2022/03/27 00:56:38;;;;;;;6.82;5.00;;;4.50;25.60;;;;;;5105854;27;34252;-76
2022/03/27 00:59:04;;;;;;;9.15;5.45;;;4.40;25.50;;;;;;5105306;27;34268;-75
2022/03/27 01:01:37;;;;;;;9.15;5.65;;;4.40;25.50;;;;;;5124007;27;34166;-76
2022/03/27 01:04:05;;;;;;;8.48;4.53;;;4.40;26.70;;;;;;5088282;27;36825;-76
2022/03/27 01:06:33;;;;;;;9.43;5.45;;;4.40;25.90;;;;;;5105393;27;34316;-76
2022/03/27 01:11:42;;;;;;;9.48;4.88;;;4.30;26.00;;;;;;5108449;27;34403;-76
2022/03/27 01:14:09;;;;;;;9.68;4.95;;;4.30;26.20;;;;;;5105579;27;35637;-76
2022/03/27 01:16:41;;;;;;;9.65;5.43;;;4.20;26.10;;;;;;5105158;27;34316;-76
2022/03/27 01:19:10;;;;;;;9.30;5.70;;;4.20;27.30;;;;;;5088416;27;34331;-76
2022/03/27 01:21:40;;;;;;;9.27;5.43;;;4.20;26.40;;;;;;5123684;27;34393;-76
2022/03/27 01:24:07;;;;;;;8.40;5.00;;;4.10;26.50;;;;;;5122317;27;35686;-76
2022/03/27 01:26:34;;;;;;;8.15;5.22;;;4.10;26.30;;;;;;5124454;27;34279;-76
2022/03/27 01:29:00;;;;;;;9.05;5.75;;;4.10;26.40;;;;;;5123055;27;34209;-76
2022/03/27 01:31:26;;;;;;;9.68;5.10;;;4.10;26.40;;;;;;5105022;27;34248;-76
2022/03/27 01:33:53;;;;;;;8.45;5.05;;;4.00;26.40;;;;;;5122991;27;34394;-76
2022/03/27 01:36:23;;;;;;;7.00;4.55;;;4.00;26.70;;;;;;5105280;27;34146;-76
2022/03/27 01:38:51;;;;;;;8.85;4.88;;;4.00;27.10;;;;;;5123899;27;34056;-76
2022/03/27 01:41:17;;;;;;;8.93;5.05;;;3.90;26.70;;;;;;5127617;27;34117;-76
2022/03/27 01:43:43;;;;;;;9.60;5.72;;;3.90;26.70;;;;;;5108512;27;35834;-75
2022/03/27 01:46:09;;;;;;;9.20;5.35;;;3.90;26.60;;;;;;5108696;27;34170;-75
2022/03/27 01:48:35;;;;;;;7.10;4.65;;;3.90;26.90;;;;;;5126589;27;34183;-76
2022/03/27 01:51:02;;;;;;;8.38;5.15;;;3.90;26.70;;;;;;5108090;27;34463;-76
2022/03/27 01:53:28;;;;;;;10.35;5.22;;;3.80;26.90;;;;;;5091664;27;35887;-76
2022/03/27 01:55:54;;;;;;;8.13;5.15;;;3.80;26.90;;;;;;5091834;27;34384;-76
2022/03/27 01:58:21;;;;;;;7.68;5.25;;;3.80;26.90;;;;;;5108399;27;34425;-76
2022/03/27 02:00:47;;;;;;;8.63;5.60;;;3.70;27.00;;;;;;5108303;27;34557;-76
2022/03/27 02:03:13;;;;;;;8.07;4.90;;;3.70;27.00;;;;;;5108722;27;36036;-76
2022/03/27 02:05:39;;;;;;;6.35;4.82;;;3.70;26.70;;;;;;5108332;27;34319;-76
2022/03/27 02:08:05;;;;;;;8.15;5.05;;;3.70;26.70;;;;;;5126436;27;34330;-76
2022/03/27 02:10:31;;;;;;;8.32;4.95;;;3.70;26.90;;;;;;5126617;27;34269;-76
2022/03/27 02:12:57;;;;;;;6.63;4.68;;;3.60;26.90;;;;;;5108117;27;35955;-76
2022/03/27 02:15:24;;;;;;;9.80;5.30;;;3.60;27.00;;;;;;5091748;27;34376;-75
2022/03/27 02:17:51;;;;;;;8.07;4.88;;;3.60;27.20;;;;;;5108554;27;34289;-76
2022/03/27 02:20:17;;;;;;;8.88;5.00;;;3.60;27.20;;;;;;5091466;27;34469;-76
2022/03/27 02:22:43;;;;;;;9.55;5.28;;;3.50;27.00;;;;;;5108248;27;36760;-76
2022/03/27 02:25:09;;;;;;;9.45;4.55;;;3.50;27.00;;;;;;5108291;27;34142;-76
2022/03/27 02:27:35;;;;;;;8.38;5.13;;;3.50;26.90;;;;;;5107990;27;34210;-76
2022/03/27 02:30:02;;;;;;;9.02;5.45;;;3.50;27.10;;;;;;5107478;27;34177;-76
2022/03/27 02:32:28;;;;;;;9.43;5.68;;;3.50;27.40;;;;;;5107809;27;35611;-76
2022/03/27 02:34:54;;;;;;;7.82;4.88;;;3.40;27.30;;;;;;5091168;27;34404;-76
2022/03/27 02:37:20;;;;;;;9.10;5.47;;;3.40;27.30;;;;;;5108269;27;34226;-76
2022/03/27 02:39:46;;;;;;;9.27;5.25;;;3.40;27.30;;;;;;5107976;27;34371;-75
2022/03/27 02:42:12;;;;;;;7.90;5.25;;;3.40;27.20;;;;;;5108593;27;35958;-76
2022/03/27 02:44:38;;;;;;;9.05;4.88;;;3.30;27.40;;;;;;5126609;27;34326;-76
2022/03/27 02:47:05;;;;;;;7.75;5.13;;;3.30;27.70;;;;;;5126349;27;34236;-76
2022/03/27 02:49:31;;;;;;;8.45;5.18;;;3.30;27.50;;;;;;5090902;27;34210;-76
2022/03/27 02:51:57;;;;;;;7.72;5.10;;;3.30;27.50;;;;;;5107694;27;35981;-79
2022/03/27 02:54:24;;;;;;;7.03;4.95;;;3.20;27.50;;;;;;5091056;27;34267;-76
2022/03/27 02:56:49;;;;;;;8.15;5.15;;;3.20;27.50;;;;;;5107534;27;34319;-76
2022/03/27 02:59:16;;;;;;;9.25;5.15;;;3.20;27.40;;;;;;5107974;27;34227;-76
2022/03/27 03:01:42;;;;;;;7.20;5.20;;;3.20;27.50;;;;;;5091068;27;36504;-75
2022/03/27 03:04:08;;;;;;;7.97;4.97;;;3.10;27.50;;;;;;5090696;27;34226;-76
2022/03/27 03:06:34;;;;;;;11.23;5.57;;;3.20;27.50;;;;;;5126495;27;34295;-76
2022/03/27 03:09:00;;;;;;;10.68;5.90;;;3.10;27.50;;;;;;5090393;27;34123;-76
2022/03/27 03:11:26;;;;;;;8.45;5.28;;;3.10;27.80;;;;;;5090220;27;35746;-76
2022/03/27 03:13:53;;;;;;;7.90;5.05;;;3.00;27.80;;;;;;5125768;27;34477;-76
2022/03/27 03:16:21;;;;;;;9.20;4.90;;;3.10;28.00;;;;;;5090407;27;34346;-75
2022/03/27 03:18:47;;;;;;;7.90;5.13;;;3.00;27.90;;;;;;5108668;27;34269;-76
2022/03/27 03:21:13;;;;;;;9.00;5.25;;;3.00;27.80;;;;;;5090620;27;35462;-76
2022/03/27 03:23:39;;;;;;;10.60;5.50;;;3.00;27.90;;;;;;5090919;27;34298;-75
2022/03/27 03:26:06;;;;;;;8.30;5.00;;;2.90;27.90;;;;;;5107864;27;34299;-76
2022/03/27 03:28:32;;;;;;;10.18;5.22;;;2.90;28.10;;;;;;5125434;27;34296;-76
2022/03/27 03:30:59;;;;;;;9.43;5.47;;;2.90;28.10;;;;;;5126062;27;34535;-75
2022/03/27 03:33:26;;;;;;;9.15;5.60;;;2.90;28.00;;;;;;5107294;27;34125;-76
2022/03/27 03:35:52;;;;;;;7.18;5.22;;;2.90;28.10;;;;;;5125514;27;34153;-76
2022/03/27 03:38:19;;;;;;;8.35;5.10;;;2.80;28.00;;;;;;5107274;27;34450;-75
2022/03/27 03:40:45;;;;;;;8.50;4.75;;;2.80;27.90;;;;;;5106866;27;36310;-76
2022/03/27 03:43:11;;;;;;;7.32;5.15;;;2.80;27.90;;;;;;5107215;27;34272;-76
2022/03/27 03:45:37;;;;;;;7.22;4.93;;;2.80;28.10;;;;;;5106970;27;34331;-76
2022/03/27 03:48:04;;;;;;;11.07;5.72;;;2.80;28.20;;;;;;5107594;27;34418;-76
2022/03/27 03:50:33;;;;;;;8.00;4.63;;;2.70;28.30;;;;;;5106900;27;35786;-76
2022/03/27 03:52:59;;;;;;;7.88;4.78;;;2.70;28.50;;;;;;5125237;27;34350;-76
2022/03/27 03:55:26;;;;;;;8.63;5.53;;;2.70;28.30;;;;;;5090043;27;34244;-76
2022/03/27 03:57:52;;;;;;;6.53;4.43;;;2.70;28.20;;;;;;5124749;27;34355;-76
2022/03/27 04:00:18;;;;;;;7.80;5.03;;;2.60;28.20;;;;;;5106974;27;35826;-76
2022/03/27 04:02:44;;;;;;;8.88;5.50;;;2.60;28.30;;;;;;5089675;27;34149;-76
2022/03/27 04:05:10;;;;;;;10.13;5.80;;;2.60;28.50;;;;;;5124589;27;34091;-76
2022/03/27 04:07:36;;;;;;;10.27;5.32;;;2.60;28.60;;;;;;5106352;27;34569;-76
2022/03/27 04:10:03;;;;;;;7.80;5.30;;;2.50;28.60;;;;;;5105627;27;35435;-76
2022/03/27 04:12:30;;;;;;;7.70;4.75;;;2.50;28.70;;;;;;5107218;27;34161;-76
2022/03/27 04:14:56;;;;;;;7.55;5.28;;;2.50;28.70;;;;;;5106046;27;34316;-77
2022/03/27 04:17:22;;;;;;;9.57;5.32;;;2.40;28.50;;;;;;5089922;27;34668;-76
2022/03/27 04:19:48;;;;;;;8.50;5.13;;;2.40;28.50;;;;;;5088794;27;35754;-76
2022/03/27 04:22:14;;;;;;;9.05;5.50;;;2.40;28.30;;;;;;5107558;27;34398;-76
2022/03/27 04:24:40;;;;;;;6.70;4.47;;;2.40;28.60;;;;;;5107081;27;34243;-76
2022/03/27 04:27:06;;;;;;;8.38;5.43;;;2.30;28.90;;;;;;5089416;27;34122;-76
2022/03/27 04:29:32;;;;;;;9.20;5.90;;;2.30;28.70;;;;;;5089482;27;35570;-76
2022/03/27 04:31:58;;;;;;;10.02;5.43;;;2.30;28.80;;;;;;5089421;27;34207;-75
2022/03/27 04:34:24;;;;;;;10.55;5.38;;;2.30;28.80;;;;;;5106799;27;34214;-76
2022/03/27 04:36:50;;;;;;;7.75;5.40;;;2.30;28.90;;;;;;5106126;27;34174;-76
2022/03/27 04:39:16;;;;;;;9.70;5.25;;;2.20;29.20;;;;;;5124780;27;35038;-76
2022/03/27 04:41:44;;;;;;;9.75;5.10;;;2.20;28.70;;;;;;5089296;27;34122;-76
2022/03/27 04:44:10;;;;;;;8.57;5.28;;;2.20;28.70;;;;;;5107369;27;34339;-76
2022/03/27 04:46:36;;;;;;;10.70;5.93;;;2.20;29.10;;;;;;5124934;27;34029;-76
2022/03/27 04:49:02;;;;;;;10.70;5.45;;;2.20;29.30;;;;;;5106148;27;34374;-76
2022/03/27 04:51:28;;;;;;;8.45;5.35;;;2.10;29.20;;;;;;5106331;27;34180;-76
2022/03/27 04:53:54;;;;;;;16.27;5.72;;;2.10;29.40;;;;;;5088966;27;34271;-76
2022/03/27 04:56:20;;;;;;;10.38;5.22;;;2.10;29.60;;;;;;5106453;27;34295;-76
2022/03/27 04:58:46;;;;;;;9.82;5.30;;;2.10;29.80;;;;;;5105072;27;35997;-76
2022/03/27 05:01:13;;;;;;;8.95;5.80;;;2.10;29.70;;;;;;5106321;27;35202;-76
2022/03/27 05:03:39;;;;;;;7.80;4.90;;;2.10;29.50;;;;;;5106170;27;34317;-77
2022/03/27 05:06:05;;;;;;;8.35;5.00;;;2.10;29.50;;;;;;5105742;27;34478;-77
2022/03/27 05:08:33;;;;;;;7.72;5.13;;;2.10;29.70;;;;;;5105152;27;35488;-76
2022/03/27 05:10:59;;;;;;;9.45;5.38;;;2.10;29.60;;;;;;5089333;27;34090;-76
2022/03/27 05:13:26;;;;;;;9.48;5.20;;;2.10;29.80;;;;;;5105992;27;34181;-76
2022/03/27 05:15:52;;;;;;;9.13;5.45;;;2.00;29.60;;;;;;5092374;27;34175;-76
2022/03/27 05:18:18;;;;;;;14.23;5.60;;;2.00;29.60;;;;;;5108866;27;35636;-76
2022/03/27 05:20:45;;;;;;;8.65;5.55;;;2.00;29.70;;;;;;5109477;27;34335;-76
2022/03/27 05:23:10;;;;;;;9.68;5.07;;;2.00;30.20;;;;;;5092395;27;34283;-76
2022/03/27 05:25:41;;;;;;;9.43;4.65;;;2.00;29.90;;;;;;5109194;27;34218;-76
2022/03/27 05:28:10;;;;;;;9.77;5.03;;;2.00;29.80;;;;;;5092551;27;35622;-76
2022/03/27 05:30:39;;;;;;;7.30;4.65;;;2.00;30.20;;;;;;5109163;27;34424;-76
2022/03/27 05:33:06;;;;;;;10.23;5.30;;;2.00;30.20;;;;;;5092536;27;34548;-76
2022/03/27 05:35:32;;;;;;;7.88;5.20;;;2.00;29.80;;;;;;5127536;27;34461;-76
2022/03/27 05:37:59;;;;;;;8.90;5.32;;;2.00;29.60;;;;;;5108825;27;35711;-76
2022/03/27 05:40:26;;;;;;;8.98;5.32;;;2.00;29.80;;;;;;5109326;27;34321;-77
2022/03/27 05:42:53;;;;;;;10.25;5.82;;;2.10;29.80;;;;;;5092338;27;34196;-76
2022/03/27 05:45:19;;;;;;;13.57;6.05;;;2.10;29.80;;;;;;5092951;27;34023;-77
2022/03/27 05:47:45;;;;;;;6.95;5.00;;;2.10;29.80;;;;;;5127383;27;34426;-76
2022/03/27 05:50:14;;;;;;;7.78;5.00;;;2.10;29.90;;;;;;5092581;27;34281;-76
2022/03/27 05:52:42;;;;;;;10.25;5.53;;;2.10;29.80;;;;;;5093257;27;34440;-76
2022/03/27 05:55:08;;;;;;;9.88;5.75;;;2.10;29.70;;;;;;5109458;27;34497;-76
2022/03/27 05:57:34;;;;;;;8.75;5.43;;;2.20;29.80;;;;;;5109622;27;34326;-77
2022/03/27 06:00:00;;;;;;;8.23;5.32;;;2.20;29.60;;;;;;5109170;27;34174;-76
2022/03/27 06:02:26;;;;;;;7.55;5.15;;;2.20;29.80;;;;;;5109857;27;34276;-76
2022/03/27 06:04:52;;;;;;;10.45;6.38;;;2.30;29.90;;;;;;5109936;27;34383;-77
2022/03/27 06:07:18;;;;;;;10.82;5.50;;;2.40;30.00;;;;;;5105794;28;36434;-76
2022/03/27 06:09:44;;;;;;;11.70;5.40;;;2.60;29.90;;;;;;5105747;28;34186;-76
2022/03/27 06:12:12;;;;;;;11.57;6.65;;;3.00;29.60;;;;;;5081534;28;34166;-76
2022/03/27 06:14:38;;;;;;;13.05;6.15;;;3.20;29.00;;;;;;5106917;28;34008;-76
2022/03/27 06:17:04;;;;;;;8.57;5.65;;;3.50;28.60;;;;;;5086585;28;35949;-76
2022/03/27 06:19:30;;;;;;;12.70;6.35;;;3.70;28.20;;;;;;5079081;28;34205;-76
2022/03/27 06:21:57;;;;;;;12.57;5.50;;;3.90;27.90;;;;;;5087291;28;34269;-76
2022/03/27 06:24:24;;;;;;;9.90;6.10;;;4.20;27.60;;;;;;5076527;28;34286;-77
2022/03/27 06:26:51;;;;;;;9.75;6.43;;;4.40;27.30;;;;;;5102587;28;36468;-77
2022/03/27 06:29:17;;;;;;;9.95;6.18;;;4.70;26.90;;;;;;5073241;28;34388;-77
2022/03/27 06:31:43;;;;;;;8.88;5.85;;;5.10;26.40;;;;;;5086863;28;34241;-76
2022/03/27 06:34:09;;;;;;;9.80;6.15;;;5.60;25.60;;;;;;5070675;28;34473;-76
2022/03/27 06:36:36;;;;;;;8.98;5.40;;;6.00;24.90;;;;;;5104193;28;35011;-76
2022/03/27 06:39:03;;;;;;;11.23;6.72;;;6.40;24.20;;;;;;5102082;28;34214;-76
2022/03/27 06:41:29;;;;;;;11.73;6.07;;;6.80;23.60;;;;;;5104503;28;34151;-76
2022/03/27 06:43:55;;;;;;;9.27;5.95;;;7.30;23.10;;;;;;5101576;28;34140;-76
2022/03/27 06:46:21;;;;;;;9.88;6.40;;;7.60;22.70;;;;;;5096402;28;35536;-76
2022/03/27 06:48:51;;;;;;;10.77;5.88;;;7.90;22.30;;;;;;5104079;28;34181;-75
2022/03/27 06:51:17;;;;;;;11.02;6.70;;;8.20;22.40;;;;;;5080723;28;34138;-76
2022/03/27 06:53:44;;;;;;;10.15;6.78;;;8.40;21.90;;;;;;5105012;28;34333;-76
2022/03/27 06:56:11;;;;;;;10.00;6.82;;;8.60;22.00;;;;;;5096404;28;35014;-75
2022/03/27 06:58:37;;;;;;;11.70;6.82;;;8.80;21.90;;;;;;5103069;28;34404;-75
2022/03/27 07:03:45;;;;;;;11.18;6.75;;;9.10;21.90;;;;;;5100139;28;34377;-75
2022/03/27 07:06:13;;;;;;;14.25;7.75;;;9.20;22.00;;;;;;5099516;28;34305;-75
2022/03/27 07:08:39;;;;;;;12.75;7.18;;;9.40;21.90;;;;;;4911400;28;5198222;-75
2022/03/27 07:11:05;;;;;;;16.30;7.95;;;9.60;21.80;;;;;;5100739;28;34318;-75
2022/03/27 07:13:31;;;;;;;11.93;7.25;;;9.70;21.90;;;;;;5094138;28;34346;-75
2022/03/27 07:15:57;;;;;;;12.15;7.57;;;9.90;21.70;;;;;;5101258;28;34253;-76
2022/03/27 07:18:24;;;;;;;12.95;7.53;;;10.00;21.60;;;;;;5091173;28;34241;-76
2022/03/27 07:20:50;;;;;;;12.13;7.75;;;10.10;21.60;;;;;;5102903;28;34208;-75
2022/03/27 07:23:19;;;;;;;13.82;7.70;;;10.30;21.70;;;;;;5090420;28;34173;-76
2022/03/27 07:25:47;;;;;;;10.73;7.60;;;10.40;21.60;;;;;;5104178;28;35624;-76
2022/03/27 07:28:14;;;;;;;14.02;6.97;;;10.50;21.70;;;;;;5073089;28;34402;-76
2022/03/27 07:30:43;;;;;;;12.88;7.43;;;10.60;22.10;;;;;;5086690;28;34259;-76
2022/03/27 07:33:10;;;;;;;10.98;7.28;;;10.70;21.90;;;;;;5086831;28;34064;-76
2022/03/27 07:35:37;;;;;;;11.55;7.38;;;10.80;21.40;;;;;;5086113;28;35838;-76
2022/03/27 07:38:03;;;;;;;13.57;8.07;;;10.90;21.50;;;;;;5102119;27;34184;-76
2022/03/27 07:40:29;;;;;;;11.98;7.55;;;11.00;21.50;;;;;;5099229;28;34279;-75
2022/03/27 07:42:56;;;;;;;11.90;7.47;;;11.20;21.60;;;;;;5105818;27;34095;-76
2022/03/27 07:45:26;;;;;;;13.30;7.68;;;11.20;21.50;;;;;;5098339;28;34943;-76
2022/03/27 07:47:54;;;;;;;13.00;7.88;;;11.20;21.60;;;;;;5087736;28;34206;-76
2022/03/27 07:50:21;;;;;;;12.52;7.53;;;11.30;21.90;;;;;;5098418;28;34068;-76
2022/03/27 07:52:48;;;;;;;12.23;7.93;;;11.40;21.90;;;;;;5105383;27;33970;-76
2022/03/27 07:55:16;;;;;;;12.10;7.18;;;11.50;22.00;;;;;;5105988;28;34148;-76
2022/03/27 07:57:43;;;;;;;14.70;7.97;;;11.60;22.00;;;;;;5101295;28;34157;-76
2022/03/27 08:00:11;;;;;;;16.05;8.85;;;11.70;22.10;;;;;;5105071;28;34188;-76
2022/03/27 08:02:38;;;;;;;15.38;7.90;;;11.90;22.20;;;;;;5105383;28;34077;-76
2022/03/27 08:05:06;;;;;;;14.35;7.65;;;12.10;22.20;;;;;;5102314;28;35707;-76
2022/03/27 08:07:32;;;;;;;13.77;7.68;;;12.30;22.30;;;;;;5094975;28;34249;-76
2022/03/27 08:09:59;;;;;;;14.13;8.27;;;12.40;22.00;;;;;;5103410;28;34513;-76
2022/03/27 08:12:26;;;;;;;12.07;7.90;;;12.60;22.10;;;;;;5093187;28;34414;-77
2022/03/27 08:14:52;;;;;;;11.77;7.78;;;12.80;21.90;;;;;;5103314;28;36560;-76
2022/03/27 08:17:18;;;;;;;14.07;8.32;;;13.00;21.80;;;;;;5090791;28;34118;-76
2022/03/27 08:19:44;;;;;;;13.85;8.20;;;13.30;22.50;;;;;;5107312;28;34134;-77
2022/03/27 08:22:11;;;;;;;13.55;9.02;;;13.50;21.60;;;;;;5092862;28;34091;-76
2022/03/27 08:24:38;;;;;;;12.93;7.82;;;13.80;21.60;;;;;;5108802;27;34334;-77
2022/03/27 08:27:06;;;;;;;14.38;8.40;;;14.10;21.40;;;;;;5109867;28;33677;-76
2022/03/27 08:29:35;;;;;;;14.38;8.70;;;14.50;21.10;;;;;;5103171;28;34210;-77
2022/03/27 08:32:03;;;;;;;13.98;8.02;;;14.80;20.70;;;;;;5107585;28;34202;-77
2022/03/27 08:34:32;;;;;;;16.23;8.35;;;15.10;20.40;;;;;;5085073;28;36445;-77
2022/03/27 08:37:01;;;;;;;13.98;8.30;;;15.40;20.10;;;;;;5092881;28;34281;-76
2022/03/27 08:39:27;;;;;;;11.63;7.53;;;15.70;19.90;;;;;;5081469;28;34141;-76
2022/03/27 08:41:54;;;;;;;13.98;8.10;;;15.90;19.70;;;;;;5104359;28;34154;-76
2022/03/27 08:44:22;;;;;;;15.10;8.35;;;16.20;19.50;;;;;;5096958;28;35558;-76
2022/03/27 08:46:50;;;;;;;10.93;7.53;;;16.50;19.40;;;;;;5103471;28;34218;-76
2022/03/27 08:49:39;;;;;;;13.45;8.50;;;16.80;19.00;;;;;;5096486;28;34159;-76
2022/03/27 08:52:40;;;;;;;11.57;7.68;;;17.20;18.70;;;;;;5104274;28;34059;-75
2022/03/27 08:55:17;;;;;;;15.82;8.55;;;17.50;17.50;;;;;;5103534;28;34955;-75
2022/03/27 08:58:00;;;;;;;12.38;7.43;;;17.80;18.00;;;;;;5100304;28;34457;-76
2022/03/27 09:00:30;;;;;;;12.55;7.65;;;18.10;16.70;;;;;;5098664;28;34192;-76
2022/03/27 09:02:58;;;;;;;13.75;7.97;;;18.40;17.40;;;;;;5102549;28;34114;-75
2022/03/27 09:05:25;;;;;;;11.05;7.38;;;18.60;17.40;;;;;;5096945;28;35614;-75
2022/03/27 09:07:53;;;;;;;15.27;7.95;;;18.80;17.30;;;;;;5085605;28;34301;-76
2022/03/27 09:10:19;;;;;;;12.20;7.60;;;19.00;16.80;;;;;;5095285;28;34194;-75
2022/03/27 09:12:46;;;;;;;13.63;7.80;;;19.20;16.80;;;;;;5085807;28;34388;-80
2022/03/27 09:15:12;;;;;;;14.00;7.13;;;19.40;16.50;;;;;;5099178;28;34391;-76
2022/03/27 09:17:59;;;;;;;14.23;7.90;;;19.60;16.00;;;;;;5076431;28;34344;-75
2022/03/27 09:20:46;;;;;;;9.90;7.15;;;19.70;13.40;;;;;;5085516;28;34394;-76
2022/03/27 09:23:17;;;;;;;12.25;7.43;;;19.90;12.90;;;;;;5084735;28;34774;-76
2022/03/27 09:26:00;;;;;;;12.57;7.53;;;19.90;14.80;;;;;;5102031;28;34933;-76
2022/03/27 09:28:43;;;;;;;12.30;7.10;;;20.00;14.90;;;;;;5103073;28;34358;-76
2022/03/27 09:31:23;;;;;;;11.68;7.10;;;20.20;11.70;;;;;;5094468;28;34197;-75
2022/03/27 09:33:54;;;;;;;11.60;7.22;;;20.30;11.50;;;;;;5099642;28;34483;-75
2022/03/27 09:36:39;;;;;;;14.27;7.68;;;20.50;14.20;;;;;;5094450;28;35967;-75
2022/03/27 09:39:13;;;;;;;13.60;7.45;;;20.60;10.60;;;;;;5101894;28;33838;-75
2022/03/27 09:41:46;;;;;;;12.20;7.45;;;20.80;12.50;;;;;;5082568;28;34142;-75
2022/03/27 09:44:16;;;;;;;10.50;6.88;;;20.90;12.50;;;;;;5101979;28;34522;-75
2022/03/27 09:46:59;;;;;;;13.60;7.47;;;21.00;12.10;;;;;;5101675;28;36041;-75
2022/03/27 09:49:42;;;;;;;10.73;6.63;;;21.30;10.70;;;;;;5103123;28;34094;-76
2022/03/27 09:52:12;;;;;;;17.67;7.55;;;21.60;9.60;;;;;;5086574;28;34178;-76
2022/03/27 09:55:03;;;;;;;10.15;6.78;;;21.70;11.90;;;;;;5102241;28;34048;-76
2022/03/27 09:57:32;;;;;;;11.35;6.85;;;21.80;10.10;;;;;;5136521;27;35682;-76
2022/03/27 10:00:15;;;;;;;10.38;6.78;;;22.00;12.00;;;;;;5101870;27;34209;-76
2022/03/27 10:02:42;;;;;;;10.68;6.50;;;22.20;10.80;;;;;;5100985;28;34248;-76
2022/03/27 10:05:11;;;;;;;9.98;6.47;;;22.20;11.20;;;;;;5087311;28;34100;-76
2022/03/27 10:07:40;;;;;;;11.55;6.72;;;22.20;10.50;;;;;;5082316;28;35630;-76
2022/03/27 10:10:10;;;;;;;11.88;7.28;;;22.40;10.90;;;;;;5088035;28;34178;-75
2022/03/27 10:12:38;;;;;;;11.77;6.82;;;22.60;10.00;;;;;;5100437;28;34232;-76
2022/03/27 10:15:08;;;;;;;9.65;6.47;;;22.60;9.80;;;;;;5104875;28;34565;-76
2022/03/27 10:17:36;;;;;;;10.27;6.55;;;22.60;9.40;;;;;;5082952;28;35530;-76
2022/03/27 10:20:08;;;;;;;12.93;6.40;;;22.70;9.90;;;;;;5104729;28;34372;-76
2022/03/27 10:22:39;;;;;;;12.85;6.60;;;22.80;8.60;;;;;;5100401;28;34223;-76
2022/03/27 10:25:08;;;;;;;11.32;6.75;;;22.90;8.70;;;;;;5088055;28;34199;-76
2022/03/27 10:27:36;;;;;;;12.25;7.10;;;22.80;9.30;;;;;;5100493;28;35591;-76
2022/03/27 10:30:04;;;;;;;11.57;6.65;;;23.10;9.50;;;;;;5104383;28;34209;-76
2022/03/27 10:32:30;;;;;;;11.88;6.90;;;23.10;8.70;;;;;;5099538;28;34148;-76
2022/03/27 10:35:09;;;;;;;13.32;6.80;;;23.20;9.10;;;;;;5103797;28;34555;-76
2022/03/27 10:38:03;;;;;;;11.45;6.57;;;23.40;6.10;;;;;;5100311;28;34570;-76
2022/03/27 10:40:50;;;;;;;10.43;6.45;;;23.40;4.70;;;;;;5097882;27;34158;-76
2022/03/27 10:43:34;;;;;;;11.05;6.75;;;23.40;6.00;;;;;;5097953;28;34223;-76
2022/03/27 10:46:17;;;;;;;12.52;6.53;;;23.60;5.70;;;;;;5088373;28;34060;-76
2022/03/27 10:48:44;;;;;;;10.45;6.60;;;23.80;5.50;;;;;;5084142;28;35595;-76
2022/03/27 10:51:32;;;;;;;13.45;6.82;;;24.00;8.00;;;;;;5103923;28;34308;-76
2022/03/27 10:54:11;;;;;;;12.13;6.07;;;24.00;7.00;;;;;;5089698;28;34290;-76
2022/03/27 10:56:43;;;;;;;10.60;6.22;;;24.00;3.40;;;;;;5082727;28;34544;-77
2022/03/27 10:59:18;;;;;;;8.85;5.70;;;23.70;6.50;;;;;;5103758;28;35947;-76
2022/03/27 11:01:47;;;;;;;9.63;4.95;;;23.70;5.60;;;;;;5087890;28;34378;-77
2022/03/27 11:04:24;;;;;;;7.53;5.50;;;23.80;6.70;;;;;;5079010;28;34213;-76
2022/03/27 11:07:12;;;;;;;10.18;5.70;;;23.80;4.80;;;;;;5104610;28;34084;-76
2022/03/27 11:09:39;;;;;;;8.02;5.43;;;23.90;5.70;;;;;;5084931;28;35677;-76
2022/03/27 11:12:06;;;;;;;9.20;5.05;;;24.00;6.80;;;;;;5103151;28;34221;-77
2022/03/27 11:14:54;;;;;;;8.40;5.50;;;24.20;6.20;;;;;;5081953;28;34235;-76
2022/03/27 11:17:37;;;;;;;10.15;5.00;;;24.00;2.90;;;;;;5087124;28;34491;-76
2022/03/27 11:20:06;;;;;;;8.02;5.00;;;24.10;1.30;;;;;;5086795;28;35862;-76
2022/03/27 11:22:51;;;;;;;11.15;5.40;;;24.10;4.50;;;;;;5081738;28;34329;-76
2022/03/27 11:25:28;;;;;;;8.07;4.70;;;23.90;3.50;;;;;;5086786;28;35031;-76
2022/03/27 11:28:08;;;;;;;8.65;4.97;;;23.90;2.40;;;;;;5103787;28;34233;-76
2022/03/27 11:30:38;;;;;;;10.05;5.13;;;23.80;3.00;;;;;;5082033;28;36451;-76
2022/03/27 11:33:21;;;;;;;9.13;5.15;;;23.80;4.50;;;;;;5085906;28;34280;-76
2022/03/27 11:36:22;;;;;;;8.13;4.57;;;23.80;1.00;;;;;;5100106;28;34350;-75
2022/03/27 11:39:02;;;;;;;7.60;4.30;;;23.70;1.00;;;;;;5086745;28;34388;-76
2022/03/27 11:41:46;;;;;;;5.95;4.30;;;23.60;2.00;;;;;;5097606;28;36739;-75
2022/03/27 11:44:22;;;;;;;7.25;4.65;;;23.60;3.50;;;;;;5103300;28;34259;-76
2022/03/27 11:46:52;;;;;;;6.80;4.50;;;23.80;2.70;;;;;;5086001;28;34334;-77
2022/03/27 11:49:19;;;;;;;8.68;4.78;;;23.80;4.90;;;;;;5096712;28;34426;-77
2022/03/27 11:51:46;;;;;;;7.05;4.30;;;23.70;5.10;;;;;;5088512;28;36604;-75
2022/03/27 11:54:27;;;;;;;6.55;4.53;;;23.70;5.30;;;;;;5096961;28;34260;-75
2022/03/27 11:56:55;;;;;;;7.95;4.47;;;23.70;2.60;;;;;;5104363;28;34135;-76
2022/03/27 11:59:25;;;;;;;9.32;4.55;;;23.70;5.00;;;;;;5098463;28;34179;-76
2022/03/27 12:01:57;;;;;;;7.15;4.40;;;23.70;5.00;;;;;;5104408;28;35077;-75
2022/03/27 12:04:25;;;;;;;7.00;4.32;;;23.80;4.00;;;;;;5098229;28;34118;-76
2022/03/27 12:07:00;;;;;;;11.25;4.60;;;23.80;4.90;;;;;;5103917;28;34173;-75
2022/03/27 12:09:30;;;;;;;10.00;3.92;;;23.90;2.80;;;;;;5092278;28;34153;-75
2022/03/27 12:12:10;;;;;;;7.55;4.70;;;23.90;4.30;;;;;;5102195;28;35801;-76
2022/03/27 12:14:50;;;;;;;8.90;4.22;;;23.90;2.70;;;;;;5095605;28;34328;-75
2022/03/27 12:17:17;;;;;;;7.28;4.30;;;24.00;1.00;;;;;;5104422;28;34115;-76
2022/03/27 12:19:57;;;;;;;6.80;4.88;;;24.00;4.40;;;;;;5105542;27;34269;-76
2022/03/27 12:22:33;;;;;;;9.85;4.53;;;24.10;1.00;;;;;;5097206;28;36431;-76
2022/03/27 12:24:59;;;;;;;8.90;4.57;;;24.20;2.00;;;;;;5105114;28;34414;-77
2022/03/27 12:30:07;;;;;;;8.80;4.78;;;24.30;4.10;;;;;;5105215;28;34134;-77
2022/03/27 12:32:33;;;;;;;8.50;4.45;;;24.20;4.00;;;;;;5099377;28;34142;-76
2022/03/27 12:35:01;;;;;;;9.80;4.10;;;24.30;3.90;;;;;;5103818;28;34110;-76
2022/03/27 12:37:31;;;;;;;8.15;4.18;;;24.10;3.80;;;;;;5097738;28;34223;-76
2022/03/27 12:40:02;;;;;;;10.20;4.60;;;24.20;3.40;;;;;;5103525;28;34165;-76
2022/03/27 12:42:36;;;;;;;6.00;3.75;;;24.30;2.70;;;;;;5098160;28;35747;-76
2022/03/27 12:45:08;;;;;;;6.43;4.22;;;24.30;2.40;;;;;;5103446;28;34250;-76
2022/03/27 12:47:39;;;;;;;7.45;3.97;;;24.30;1.90;;;;;;5082580;28;34125;-76
2022/03/27 12:50:08;;;;;;;7.50;4.22;;;24.30;1.90;;;;;;5087005;28;34187;-76
2022/03/27 12:52:42;;;;;;;9.63;3.55;;;24.20;2.20;;;;;;5098685;28;35517;-76
2022/03/27 12:55:10;;;;;;;7.85;4.28;;;24.30;3.20;;;;;;5100942;27;34091;-76
2022/03/27 12:57:53;;;;;;;6.70;4.70;;;24.40;3.20;;;;;;5077464;28;34066;-77
2022/03/27 13:00:21;;;;;;;4.60;3.58;;;24.30;1.00;;;;;;5103710;28;34099;-77
2022/03/27 13:02:47;;;;;;;7.38;4.32;;;24.10;2.40;;;;;;5086741;28;35543;-77
2022/03/27 13:05:15;;;;;;;6.47;4.03;;;24.10;3.00;;;;;;5095835;28;34259;-77
2022/03/27 13:07:57;;;;;;;5.20;3.78;;;24.00;2.90;;;;;;5103222;28;34141;-76